createdAt,value
2022-11-07T00:01:52.208Z,13.30
2022-11-07T00:04:20.397Z,13.30
2022-11-07T00:06:48.530Z,13.30
2022-11-07T00:09:16.756Z,13.40
2022-11-07T00:11:44.862Z,13.40
2022-11-07T00:14:15.460Z,13.40
2022-11-07T00:16:44.018Z,13.40
2022-11-07T00:19:14.292Z,13.40
2022-11-07T00:21:42.460Z,13.30
2022-11-07T00:24:11.219Z,13.40
2022-11-07T00:26:39.569Z,13.40
2022-11-07T00:29:15.351Z,13.40
2022-11-07T00:31:43.596Z,13.40
2022-11-07T00:34:11.791Z,13.40
2022-11-07T00:36:40.359Z,13.50
2022-11-07T00:39:08.765Z,13.40
2022-11-07T00:41:36.949Z,13.40
2022-11-07T00:44:05.574Z,13.40
2022-11-07T00:46:35.068Z,13.40
2022-11-07T00:49:03.255Z,13.40
2022-11-07T00:51:32.161Z,13.30
2022-11-07T00:54:00.436Z,13.10
2022-11-07T00:56:28.557Z,13.00
2022-11-07T00:58:57.160Z,12.90
2022-11-07T01:01:27.717Z,12.80
2022-11-07T01:04:15.216Z,12.80
2022-11-07T01:06:45.071Z,12.80
2022-11-07T01:09:15.969Z,12.80
2022-11-07T01:11:45.027Z,12.70
2022-11-07T01:14:15.286Z,12.60
2022-11-07T01:16:43.474Z,12.50
2022-11-07T01:19:13.275Z,12.50
2022-11-07T01:21:42.789Z,12.40
2022-11-07T01:24:13.642Z,12.30
2022-11-07T01:26:42.799Z,12.30
2022-11-07T01:29:11.265Z,12.20
2022-11-07T01:31:39.614Z,12.20
2022-11-07T01:34:08.049Z,12.30
2022-11-07T01:36:37.638Z,12.30
2022-11-07T01:39:06.288Z,12.40
2022-11-07T01:41:36.462Z,12.40
2022-11-07T01:44:26.229Z,12.40
2022-11-07T01:46:58.300Z,12.40
2022-11-07T01:49:29.724Z,12.40
2022-11-07T01:52:04.037Z,12.40
2022-11-07T01:54:35.247Z,12.50
2022-11-07T01:57:08.167Z,12.40
2022-11-07T01:59:38.047Z,12.40
2022-11-07T02:02:06.583Z,12.40
2022-11-07T02:04:34.778Z,12.40
2022-11-07T02:07:09.608Z,12.40
2022-11-07T02:09:37.886Z,12.40
2022-11-07T02:12:06.552Z,12.40
2022-11-07T02:14:34.672Z,12.40
2022-11-07T02:17:03.141Z,12.30
2022-11-07T02:19:37.093Z,12.40
2022-11-07T02:22:14.954Z,12.40
2022-11-07T02:24:44.471Z,12.40
2022-11-07T02:27:15.863Z,12.40
2022-11-07T02:29:48.530Z,12.50
2022-11-07T02:32:16.744Z,12.60
2022-11-07T02:34:45.034Z,12.60
2022-11-07T02:37:20.894Z,12.60
2022-11-07T02:39:50.758Z,12.60
2022-11-07T02:42:18.954Z,12.60
2022-11-07T02:44:47.988Z,12.70
2022-11-07T02:47:17.012Z,12.70
2022-11-07T02:49:45.124Z,12.80
2022-11-07T02:52:13.334Z,12.70
2022-11-07T02:54:41.414Z,12.80
2022-11-07T02:57:10.957Z,12.80
2022-11-07T02:59:39.152Z,12.80
2022-11-07T03:02:07.459Z,12.80
2022-11-07T03:04:35.647Z,12.80
2022-11-07T03:07:03.755Z,12.90
2022-11-07T03:09:31.886Z,12.80
2022-11-07T03:12:00.047Z,12.90
2022-11-07T03:14:29.595Z,12.90
2022-11-07T03:16:57.746Z,12.90
2022-11-07T03:19:25.892Z,12.90
2022-11-07T03:21:54.029Z,12.80
2022-11-07T03:24:22.163Z,12.80
2022-11-07T03:26:50.275Z,12.80
2022-11-07T03:29:18.492Z,12.80
2022-11-07T03:31:47.975Z,12.80
2022-11-07T03:34:16.106Z,12.80
2022-11-07T03:36:44.255Z,12.70
2022-11-07T03:39:12.388Z,12.80
2022-11-07T03:41:40.587Z,12.70
2022-11-07T03:44:08.815Z,12.70
2022-11-07T03:46:36.895Z,12.80
2022-11-07T03:49:06.539Z,12.70
2022-11-07T03:51:34.696Z,12.70
2022-11-07T03:54:02.809Z,12.80
2022-11-07T03:56:30.942Z,12.70
2022-11-07T03:58:59.157Z,12.70
2022-11-07T04:01:27.492Z,12.80
2022-11-07T04:03:56.479Z,12.80
2022-11-07T04:06:26.109Z,12.80
2022-11-07T04:08:54.301Z,12.80
2022-11-07T04:11:39.771Z,12.70
2022-11-07T04:14:39.668Z,12.70
2022-11-07T04:17:20.321Z,12.80
2022-11-07T04:19:48.974Z,12.80
2022-11-07T04:22:19.261Z,12.80
2022-11-07T04:24:47.754Z,12.80
2022-11-07T04:27:34.371Z,12.80
2022-11-07T04:30:19.321Z,12.90
2022-11-07T04:32:49.044Z,12.80
2022-11-07T04:35:18.085Z,12.90
2022-11-07T04:37:48.199Z,12.90
2022-11-07T04:40:17.322Z,13.00
2022-11-07T04:42:46.234Z,13.00
2022-11-07T04:45:14.674Z,13.10
2022-11-07T04:47:42.894Z,13.10
2022-11-07T04:50:13.459Z,13.00
2022-11-07T04:52:41.630Z,13.00
2022-11-07T04:55:19.831Z,13.10
2022-11-07T04:57:48.068Z,13.10
2022-11-07T05:00:17.650Z,13.00
2022-11-07T05:02:45.903Z,13.10
2022-11-07T05:05:14.574Z,13.10
2022-11-07T05:07:43.245Z,13.00
2022-11-07T05:10:20.217Z,13.10
2022-11-07T05:12:48.435Z,13.10
2022-11-07T05:15:17.325Z,13.10
2022-11-07T05:17:45.536Z,13.00
2022-11-07T05:20:28.382Z,13.00
2022-11-07T05:23:15.406Z,13.00
2022-11-07T05:25:47.010Z,13.00
2022-11-07T05:28:16.974Z,13.00
2022-11-07T05:30:46.620Z,13.10
2022-11-07T05:33:16.276Z,13.10
2022-11-07T05:35:45.127Z,13.10
2022-11-07T05:38:13.488Z,13.10
2022-11-07T05:40:42.563Z,13.10
2022-11-07T05:43:14.173Z,13.10
2022-11-07T05:45:43.081Z,13.10
2022-11-07T05:48:12.962Z,13.20
2022-11-07T05:50:42.051Z,13.20
2022-11-07T05:53:10.294Z,13.20
2022-11-07T05:55:38.451Z,13.20
2022-11-07T05:58:12.425Z,13.10
2022-11-07T06:00:40.988Z,13.20
2022-11-07T06:03:09.420Z,13.10
2022-11-07T06:05:39.141Z,13.10
2022-11-07T06:08:07.765Z,13.10
2022-11-07T06:10:37.311Z,13.00
2022-11-07T06:13:07.691Z,13.10
2022-11-07T06:15:38.280Z,13.00
2022-11-07T06:18:08.461Z,13.00
2022-11-07T06:20:36.832Z,12.90
2022-11-07T06:23:06.688Z,12.90
2022-11-07T06:25:35.137Z,12.80
2022-11-07T06:28:05.222Z,12.90
2022-11-07T06:30:33.926Z,12.90
2022-11-07T06:33:04.806Z,12.90
2022-11-07T06:35:33.525Z,12.90
2022-11-07T06:38:03.453Z,12.90
2022-11-07T06:40:31.818Z,12.90
2022-11-07T06:43:06.930Z,13.00
2022-11-07T06:45:36.024Z,12.90
2022-11-07T06:48:05.837Z,12.90
2022-11-07T06:50:34.470Z,12.90
2022-11-07T06:53:03.706Z,13.00
2022-11-07T06:55:32.119Z,13.00
2022-11-07T06:58:01.227Z,13.00
2022-11-07T07:00:30.182Z,13.00
2022-11-07T07:02:59.333Z,13.10
2022-11-07T07:05:31.846Z,13.10
2022-11-07T07:08:00.400Z,13.10
2022-11-07T07:10:28.545Z,13.10
2022-11-07T07:12:57.655Z,13.20
2022-11-07T07:15:25.975Z,13.20
2022-11-07T07:17:54.156Z,13.20
2022-11-07T07:20:22.403Z,13.10
2022-11-07T07:22:58.977Z,13.10
2022-11-07T07:25:29.673Z,13.10
2022-11-07T07:27:57.743Z,13.10
2022-11-07T07:30:25.930Z,13.20
2022-11-07T07:32:54.021Z,13.20
2022-11-07T07:35:22.325Z,13.20
2022-11-07T07:37:52.981Z,13.30
2022-11-07T07:40:21.492Z,13.30
2022-11-07T07:42:50.111Z,13.30
2022-11-07T07:45:18.639Z,13.40
2022-11-07T07:47:46.879Z,13.40
2022-11-07T07:50:15.239Z,13.40
2022-11-07T07:52:43.869Z,13.40
2022-11-07T07:55:13.425Z,13.40
2022-11-07T07:57:42.801Z,13.50
2022-11-07T08:00:12.629Z,13.60
2022-11-07T08:02:43.617Z,13.70
2022-11-07T08:05:12.851Z,13.70
2022-11-07T08:07:47.238Z,13.80
2022-11-07T08:10:40.871Z,13.90
2022-11-07T08:13:05.853Z,14.00
2022-11-07T08:15:34.034Z,14.00
2022-11-07T08:18:03.305Z,14.00
2022-11-07T08:20:31.743Z,13.90
2022-11-07T08:23:04.300Z,14.00
2022-11-07T08:25:34.253Z,14.00
2022-11-07T08:28:02.602Z,14.10
2022-11-07T08:30:32.037Z,14.10
2022-11-07T08:33:01.875Z,14.30
2022-11-07T08:35:30.432Z,14.30
2022-11-07T08:37:59.206Z,14.40
2022-11-07T08:40:27.877Z,14.60
2022-11-07T08:43:01.662Z,14.70
2022-11-07T08:45:29.799Z,14.70
2022-11-07T08:47:59.266Z,14.80
2022-11-07T08:50:28.393Z,14.90
2022-11-07T08:53:02.278Z,15.00
2022-11-07T08:55:31.355Z,15.10
2022-11-07T08:58:01.907Z,15.10
2022-11-07T09:00:30.166Z,15.30
2022-11-07T09:03:31.172Z,15.50
2022-11-07T09:05:49.777Z,15.60
2022-11-07T09:08:18.970Z,15.50
2022-11-07T09:10:47.115Z,15.50
2022-11-07T09:13:16.998Z,15.30
2022-11-07T09:15:50.569Z,15.40
2022-11-07T09:18:20.449Z,15.40
2022-11-07T09:20:48.628Z,15.40
2022-11-07T09:23:17.223Z,15.50
2022-11-07T09:25:45.616Z,15.50
2022-11-07T09:28:14.357Z,15.40
2022-11-07T09:30:44.155Z,15.40
2022-11-07T09:33:12.425Z,15.40
2022-11-07T09:35:40.965Z,15.40
2022-11-07T09:38:09.104Z,15.40
2022-11-07T09:40:44.647Z,15.30
2022-11-07T09:43:45.342Z,15.30
2022-11-07T09:46:27.045Z,15.40
2022-11-07T09:49:02.217Z,15.50
2022-11-07T09:51:35.462Z,15.50
2022-11-07T09:54:09.211Z,15.60
2022-11-07T09:56:37.386Z,15.80
2022-11-07T09:59:13.892Z,15.80
2022-11-07T10:01:43.795Z,15.70
2022-11-07T10:04:26.414Z,15.70
2022-11-07T10:06:59.921Z,15.70
2022-11-07T10:09:35.824Z,15.70
2022-11-07T10:12:15.810Z,15.90
2022-11-07T10:14:55.313Z,15.80
2022-11-07T10:17:32.977Z,15.90
2022-11-07T10:20:24.429Z,15.80
2022-11-07T10:23:04.086Z,16.10
2022-11-07T10:25:41.185Z,16.10
2022-11-07T10:28:17.664Z,16.00
2022-11-07T10:30:49.762Z,16.20
2022-11-07T10:33:41.802Z,16.10
2022-11-07T10:36:16.975Z,16.10
2022-11-07T10:38:45.334Z,16.30
2022-11-07T10:41:17.391Z,16.20
2022-11-07T10:43:49.849Z,16.20
2022-11-07T10:46:21.876Z,16.30
2022-11-07T10:48:56.396Z,16.40
2022-11-07T10:51:40.633Z,16.40
2022-11-07T10:54:21.785Z,16.50
2022-11-07T10:56:55.260Z,16.50
2022-11-07T10:59:32.915Z,16.30
2022-11-07T11:02:15.112Z,16.30
2022-11-07T11:04:51.154Z,16.30
2022-11-07T11:07:24.217Z,16.40
2022-11-07T11:09:57.610Z,16.40
2022-11-07T11:12:28.432Z,16.40
2022-11-07T11:15:08.287Z,16.30
2022-11-07T11:17:36.569Z,16.20
2022-11-07T11:20:07.807Z,16.10
2022-11-07T11:22:42.680Z,16.20
2022-11-07T11:25:20.026Z,16.30
2022-11-07T11:27:50.011Z,16.30
2022-11-07T11:30:20.813Z,16.30
2022-11-07T11:32:54.408Z,16.60
2022-11-07T11:35:41.980Z,16.50
2022-11-07T11:38:15.949Z,16.70
2022-11-07T11:40:48.256Z,16.70
2022-11-07T11:43:23.989Z,16.70
2022-11-07T11:46:04.003Z,16.80
2022-11-07T11:48:36.104Z,16.80
2022-11-07T11:51:07.965Z,16.80
2022-11-07T11:53:36.071Z,17.10
2022-11-07T11:56:27.108Z,17.40
2022-11-07T11:59:13.150Z,17.70
2022-11-07T12:01:52.040Z,17.60
2022-11-07T12:04:47.698Z,17.40
2022-11-07T12:07:34.579Z,17.80
2022-11-07T12:10:07.846Z,17.70
2022-11-07T12:12:46.432Z,17.60
2022-11-07T12:15:40.062Z,17.60
2022-11-07T12:18:18.996Z,17.60
2022-11-07T12:21:10.053Z,17.60
2022-11-07T12:24:16.558Z,17.70
2022-11-07T12:26:51.632Z,17.60
2022-11-07T12:29:28.989Z,17.80
2022-11-07T12:32:10.890Z,17.70
2022-11-07T12:34:52.863Z,17.70
2022-11-07T12:37:42.310Z,17.80
2022-11-07T12:40:28.941Z,17.90
2022-11-07T12:43:10.666Z,18.20
2022-11-07T12:45:47.730Z,18.40
2022-11-07T12:48:39.990Z,18.10
2022-11-07T12:51:17.548Z,18.20
2022-11-07T12:53:56.823Z,18.20
2022-11-07T12:56:36.270Z,17.90
2022-11-07T12:59:10.990Z,17.80
2022-11-07T13:01:46.181Z,17.80
2022-11-07T13:04:20.992Z,17.90
2022-11-07T13:06:56.230Z,18.00
2022-11-07T13:09:32.613Z,17.90
2022-11-07T13:12:10.039Z,18.10
2022-11-07T13:14:42.127Z,18.20
2022-11-07T13:17:16.185Z,18.30
2022-11-07T13:19:46.137Z,18.70
2022-11-07T13:22:32.025Z,18.80
2022-11-07T13:25:24.495Z,18.30
2022-11-07T13:28:20.676Z,18.30
2022-11-07T13:30:57.061Z,18.40
2022-11-07T13:33:30.639Z,18.70
2022-11-07T13:36:00.889Z,19.00
2022-11-07T13:38:29.566Z,19.20
2022-11-07T13:41:03.783Z,19.00
2022-11-07T13:43:40.963Z,18.70
2022-11-07T13:46:12.591Z,18.50
2022-11-07T13:48:48.971Z,18.20
2022-11-07T13:51:21.800Z,18.10
2022-11-07T13:53:59.004Z,17.80
2022-11-07T13:56:33.758Z,17.70
2022-11-07T13:59:09.265Z,17.50
2022-11-07T14:01:44.865Z,17.50
2022-11-07T14:04:14.933Z,17.50
2022-11-07T14:06:43.820Z,17.50
2022-11-07T14:09:16.822Z,17.40
2022-11-07T14:11:45.976Z,17.40
2022-11-07T14:14:15.896Z,17.40
2022-11-07T14:16:47.545Z,17.40
2022-11-07T14:19:17.086Z,17.30
2022-11-07T14:21:46.864Z,17.30
2022-11-07T14:24:23.802Z,17.30
2022-11-07T14:27:03.126Z,17.30
2022-11-07T14:29:33.182Z,17.40
2022-11-07T14:32:03.182Z,17.40
2022-11-07T14:34:31.563Z,17.40
2022-11-07T14:37:02.250Z,17.30
2022-11-07T14:39:33.137Z,17.40
2022-11-07T14:42:04.157Z,17.50
2022-11-07T14:44:55.364Z,17.60
2022-11-07T14:47:26.949Z,17.50
2022-11-07T14:49:56.811Z,17.40
2022-11-07T14:52:27.551Z,17.50
2022-11-07T14:55:01.138Z,17.50
2022-11-07T14:57:29.556Z,17.40
2022-11-07T14:59:59.251Z,17.30
2022-11-07T15:02:30.805Z,17.30
2022-11-07T15:05:06.790Z,17.20
2022-11-07T15:07:47.487Z,17.00
2022-11-07T15:10:24.916Z,16.80
2022-11-07T15:12:55.057Z,16.70
2022-11-07T15:15:26.798Z,16.60
2022-11-07T15:17:56.750Z,16.50
2022-11-07T15:20:34.960Z,16.40
2022-11-07T15:23:05.567Z,16.30
2022-11-07T15:25:38.109Z,16.20
2022-11-07T15:28:26.097Z,16.10
2022-11-07T15:30:57.992Z,16.10
2022-11-07T15:33:26.854Z,16.00
2022-11-07T15:35:57.873Z,16.00
2022-11-07T15:38:27.508Z,15.90
2022-11-07T15:40:56.192Z,15.80
2022-11-07T15:43:24.625Z,15.80
2022-11-07T15:45:53.904Z,15.60
2022-11-07T15:48:26.671Z,15.60
2022-11-07T15:50:54.810Z,15.50
2022-11-07T15:53:24.643Z,15.40
2022-11-07T15:55:54.474Z,15.30
2022-11-07T15:58:25.147Z,15.10
2022-11-07T16:00:53.728Z,14.90
2022-11-07T16:03:25.260Z,14.60
2022-11-07T16:05:55.626Z,14.40
2022-11-07T16:08:25.712Z,14.40
2022-11-07T16:10:56.797Z,14.30
2022-11-07T16:13:24.945Z,14.20
2022-11-07T16:15:56.754Z,13.90
2022-11-07T16:18:27.056Z,13.80
2022-11-07T16:20:55.212Z,13.80
2022-11-07T16:23:23.407Z,13.80
2022-11-07T16:25:52.341Z,13.80
2022-11-07T16:28:25.614Z,13.60
2022-11-07T16:30:54.441Z,13.50
2022-11-07T16:33:23.082Z,13.30
2022-11-07T16:35:55.058Z,13.20
2022-11-07T16:38:25.059Z,13.10
2022-11-07T16:40:53.678Z,13.00
2022-11-07T16:43:22.331Z,13.00
2022-11-07T16:45:52.723Z,12.90
2022-11-07T16:48:23.793Z,12.80
2022-11-07T16:50:54.211Z,12.80
2022-11-07T16:53:23.540Z,12.70
2022-11-07T16:55:54.512Z,12.80
2022-11-07T16:58:28.868Z,12.80
2022-11-07T17:01:05.320Z,12.80
2022-11-07T17:03:34.337Z,12.70
2022-11-07T17:06:05.568Z,12.60
2022-11-07T17:08:38.299Z,12.50
2022-11-07T17:11:07.208Z,12.50
2022-11-07T17:13:35.979Z,12.50
2022-11-07T17:16:04.175Z,12.40
2022-11-07T17:18:32.329Z,12.30
2022-11-07T17:21:00.534Z,12.30
2022-11-07T17:23:31.059Z,12.30
2022-11-07T17:26:01.370Z,12.20
2022-11-07T17:28:29.608Z,12.00
2022-11-07T17:30:57.776Z,12.00
2022-11-07T17:33:25.911Z,11.90
2022-11-07T17:35:56.613Z,11.80
2022-11-07T17:38:25.743Z,11.80
2022-11-07T17:40:55.237Z,11.80
2022-11-07T17:43:23.440Z,11.80
2022-11-07T17:45:51.584Z,11.80
2022-11-07T17:48:19.958Z,11.80
2022-11-07T17:50:48.241Z,11.70
2022-11-07T17:53:16.360Z,11.60
2022-11-07T17:55:44.476Z,11.60
2022-11-07T17:58:14.246Z,11.50
2022-11-07T18:00:42.552Z,11.40
2022-11-07T18:03:10.849Z,11.30
2022-11-07T18:05:39.217Z,11.30
2022-11-07T18:08:15.421Z,11.10
2022-11-07T18:11:00.820Z,11.10
2022-11-07T18:13:30.375Z,11.10
2022-11-07T18:15:58.511Z,11.00
2022-11-07T18:18:27.120Z,10.90
2022-11-07T18:20:55.242Z,10.90
2022-11-07T18:23:23.434Z,10.80
2022-11-07T18:25:51.577Z,10.70
2022-11-07T18:28:19.890Z,10.60
2022-11-07T18:30:49.805Z,10.50
2022-11-07T18:33:17.950Z,10.40
2022-11-07T18:35:46.154Z,10.30
2022-11-07T18:38:14.836Z,10.20
2022-11-07T18:40:43.236Z,10.20
2022-11-07T18:43:12.013Z,10.10
2022-11-07T18:45:42.722Z,10.10
2022-11-07T18:48:12.182Z,10.10
2022-11-07T18:50:40.439Z,10.10
2022-11-07T18:53:08.601Z,10.20
2022-11-07T18:55:36.810Z,10.20
2022-11-07T18:58:05.126Z,10.20
2022-11-07T19:00:33.556Z,10.20
2022-11-07T19:03:01.743Z,10.20
2022-11-07T19:05:31.368Z,10.20
2022-11-07T19:07:59.607Z,10.30
2022-11-07T19:10:27.710Z,10.20
2022-11-07T19:12:55.876Z,10.20
2022-11-07T19:15:27.059Z,10.20
2022-11-07T19:17:55.190Z,10.30
2022-11-07T19:20:23.459Z,10.20
2022-11-07T19:22:52.991Z,10.20
2022-11-07T19:25:22.023Z,10.10
2022-11-07T19:27:51.643Z,10.10
2022-11-07T19:30:19.956Z,10.10
2022-11-07T19:32:48.189Z,10.00
2022-11-07T19:35:17.501Z,10.00
2022-11-07T19:37:45.644Z,10.00
2022-11-07T19:40:15.458Z,9.90
2022-11-07T19:42:43.710Z,9.90
2022-11-07T19:45:12.162Z,9.90
2022-11-07T19:47:40.338Z,9.90
2022-11-07T19:50:09.049Z,9.90
2022-11-07T19:52:37.352Z,9.80
2022-11-07T19:55:06.692Z,9.80
2022-11-07T19:57:36.285Z,9.70
2022-11-07T20:00:05.819Z,9.60
2022-11-07T20:02:38.721Z,9.50
2022-11-07T20:05:10.553Z,9.40
2022-11-07T20:07:39.194Z,9.40
2022-11-07T20:10:08.801Z,9.40
2022-11-07T20:12:41.504Z,9.30
2022-11-07T20:15:11.067Z,9.30
2022-11-07T20:17:40.617Z,9.20
2022-11-07T20:20:13.454Z,9.10
2022-11-07T20:22:46.486Z,9.00
2022-11-07T20:25:15.322Z,9.00
2022-11-07T20:27:44.888Z,8.90
2022-11-07T20:30:14.312Z,8.90
2022-11-07T20:32:45.405Z,8.90
2022-11-07T20:35:13.658Z,8.80
2022-11-07T20:37:41.819Z,8.90
2022-11-07T20:40:11.759Z,8.80
2022-11-07T20:42:39.910Z,8.80
2022-11-07T20:45:13.279Z,8.80
2022-11-07T20:47:41.636Z,8.80
2022-11-07T20:50:10.403Z,8.80
2022-11-07T20:52:38.824Z,8.70
2022-11-07T20:55:07.749Z,8.70
2022-11-07T20:57:35.834Z,8.70
2022-11-07T21:00:04.738Z,8.60
2022-11-07T21:02:34.341Z,8.70
2022-11-07T21:05:17.157Z,8.60
2022-11-07T21:07:45.667Z,8.50
2022-11-07T21:10:14.417Z,8.50
2022-11-07T21:12:43.779Z,8.40
2022-11-07T21:15:12.470Z,8.40
2022-11-07T21:17:42.074Z,8.30
2022-11-07T21:20:11.052Z,8.40
2022-11-07T21:22:39.199Z,8.40
2022-11-07T21:25:08.321Z,8.40
2022-11-07T21:27:37.338Z,8.40
2022-11-07T21:30:08.229Z,8.30
2022-11-07T21:32:37.053Z,8.30
2022-11-07T21:35:07.590Z,8.30
2022-11-07T21:37:35.884Z,8.30
2022-11-07T21:40:04.317Z,8.30
2022-11-07T21:42:32.553Z,8.30
2022-11-07T21:45:00.636Z,8.30
2022-11-07T21:47:30.917Z,8.30
2022-11-07T21:49:59.738Z,8.30
2022-11-07T21:52:29.224Z,8.20
2022-11-07T21:54:57.355Z,8.20
2022-11-07T21:57:26.230Z,8.20
2022-11-07T21:59:54.352Z,8.20
2022-11-07T22:02:22.522Z,8.20
2022-11-07T22:04:50.699Z,8.20
2022-11-07T22:07:19.052Z,8.20
2022-11-07T22:09:49.346Z,8.20
2022-11-07T22:12:17.490Z,8.20
2022-11-07T22:14:49.057Z,8.10
2022-11-07T22:17:17.225Z,8.10
2022-11-07T22:19:46.963Z,8.10
2022-11-07T22:22:15.278Z,8.10
2022-11-07T22:24:43.607Z,8.10
2022-11-07T22:27:13.210Z,8.10
2022-11-07T22:29:41.275Z,8.10
2022-11-07T22:32:09.493Z,8.10
2022-11-07T22:34:37.583Z,8.00
2022-11-07T22:37:05.731Z,8.00
2022-11-07T22:39:33.980Z,8.00
2022-11-07T22:42:02.083Z,8.00
2022-11-07T22:44:31.578Z,8.10
2022-11-07T22:46:59.634Z,8.10
2022-11-07T22:49:27.727Z,8.00
2022-11-07T22:51:55.865Z,8.10
2022-11-07T22:54:24.021Z,8.10
2022-11-07T22:56:52.156Z,8.10
2022-11-07T22:59:20.303Z,8.10
2022-11-07T23:01:49.901Z,8.20
2022-11-07T23:04:18.731Z,8.30
2022-11-07T23:06:47.005Z,8.30
2022-11-07T23:09:15.998Z,8.30
2022-11-07T23:11:47.212Z,8.40
2022-11-07T23:14:18.660Z,8.40
2022-11-07T23:16:49.852Z,8.40
2022-11-07T23:19:20.130Z,8.40
2022-11-07T23:21:49.020Z,8.50
2022-11-07T23:24:17.538Z,8.60
2022-11-07T23:26:45.994Z,8.50
2022-11-07T23:29:15.628Z,8.50
2022-11-07T23:31:46.854Z,8.50
2022-11-07T23:34:16.831Z,8.50
2022-11-07T23:36:45.475Z,8.40
2022-11-07T23:39:16.558Z,8.60
2022-11-07T23:41:45.422Z,8.60
2022-11-07T23:44:14.009Z,8.60
2022-11-07T23:46:59.844Z,8.60
2022-11-07T23:49:52.126Z,8.50
2022-11-07T23:52:20.299Z,8.60
2022-11-07T23:55:05.767Z,8.70
2022-11-07T23:57:58.203Z,8.70
